Time;durP1;ratioP1;P1;durP2;ratioP2;P2;SDS_P1;SDS_P2;PMS_P1;PMS_P2;Temp;Humidity;BMP_temperature;BMP_pressure;BME280_temperature;BME280_humidity;BME280_pressure;Samples;Min_cycle;Max_cycle;Signal;HPM_P1;HPM_P2
2023/03/30 00:00:53;;;;;;;4.95;3.30;;;;;;;;;;4994891;28;20028;-67
2023/03/30 00:03:21;;;;;;;4.03;3.03;;;;;;;;;;4995151;28;20036;-68
2023/03/30 00:05:50;;;;;;;4.53;2.83;;;;;;;;;;4995076;28;20041;-69
2023/03/30 00:08:17;;;;;;;5.38;2.97;;;;;;;;;;4994666;28;20062;-67
2023/03/30 00:10:46;;;;;;;5.30;3.47;;;;;;;;;;5004711;28;20069;-68
2023/03/30 00:13:13;;;;;;;4.68;2.50;;;;;;;;;;4994960;28;20030;-67
2023/03/30 00:15:40;;;;;;;3.47;2.20;;;;;;;;;;4994599;28;20026;-68
2023/03/30 00:18:07;;;;;;;2.88;2.30;;;;;;;;;;4994858;28;20050;-68
2023/03/30 00:20:36;;;;;;;6.03;2.47;;;;;;;;;;5011878;28;20029;-68
2023/03/30 00:23:03;;;;;;;5.07;2.67;;;;;;;;;;5014200;28;20032;-68
2023/03/30 00:25:29;;;;;;;5.03;2.65;;;;;;;;;;5014218;28;20030;-68
2023/03/30 00:27:56;;;;;;;5.28;2.20;;;;;;;;;;5014264;28;20479;-68
2023/03/30 00:30:22;;;;;;;2.97;2.20;;;;;;;;;;5014127;28;20096;-68
2023/03/30 00:32:49;;;;;;;6.53;2.15;;;;;;;;;;5014255;28;20014;-71
2023/03/30 00:35:16;;;;;;;1.92;1.75;;;;;;;;;;5014279;28;20022;-72
2023/03/30 00:37:44;;;;;;;2.78;1.70;;;;;;;;;;5012070;28;20486;-72
2023/03/30 00:40:15;;;;;;;2.83;2.25;;;;;;;;;;4995379;28;20019;-70
2023/03/30 00:42:42;;;;;;;5.75;2.20;;;;;;;;;;4994931;28;20049;-70
2023/03/30 00:45:20;;;;;;;5.38;1.80;;;26.10;99.90;;;;;;4996557;28;20534;-69
2023/03/30 00:47:52;;;;;;;3.08;2.03;;;;;;;;;;5013741;28;20026;-69
2023/03/30 00:50:21;;;;;;;3.70;2.90;;;26.50;99.90;;;;;;5013955;28;20022;-70
2023/03/30 00:52:51;;;;;;;4.30;2.35;;;26.30;99.90;;;;;;5013985;28;20034;-69
2023/03/30 00:55:20;;;;;;;4.03;2.42;;;;;;;;;;5014352;28;20029;-70
2023/03/30 00:57:48;;;;;;;4.43;2.13;;;26.30;99.90;;;;;;4996505;28;20057;-69
2023/03/30 01:00:15;;;;;;;4.97;2.50;;;;;;;;;;4994687;28;20479;-70
2023/03/30 01:02:45;;;;;;;2.60;2.25;;;;;;;;;;4994339;28;20045;-70
2023/03/30 01:05:12;;;;;;;4.55;2.53;;;26.20;99.90;;;;;;4994209;28;20024;-70
2023/03/30 01:07:39;;;;;;;6.63;2.13;;;;;;;;;;4994163;28;20100;-69
2023/03/30 01:10:07;;;;;;;5.78;2.10;;;;;;;;;;4994123;28;20050;-69
2023/03/30 01:12:34;;;;;;;6.82;2.80;;;;;;;;;;4994059;28;20031;-68
2023/03/30 01:15:00;;;;;;;4.43;2.83;;;;;;;;;;4994266;28;20025;-70
2023/03/30 01:17:33;;;;;;;4.95;2.50;;;;;;;;;;4994646;28;20026;-71
2023/03/30 01:19:59;;;;;;;;;;;;;;;;;;4994559;28;20049;-70
2023/03/30 01:22:26;;;;;;;8.15;3.25;;;;;;;;;;4993973;28;20362;-70
2023/03/30 01:24:53;;;;;;;7.60;2.67;;;;;;;;;;4993820;28;20037;-72
2023/03/30 01:27:23;;;;;;;5.35;2.72;;;;;;;;;;4993800;28;20030;-71
2023/03/30 01:30:10;;;;;;;4.90;3.20;;;26.70;99.90;;;;;;4993700;28;20030;-70
2023/03/30 01:32:36;;;;;;;5.68;3.20;;;;;;;;;;4990584;28;20070;-71
2023/03/30 01:35:23;;;;;;;4.20;3.13;;;;;;;;;;4993782;28;20066;-70
2023/03/30 01:37:59;;;;;;;5.47;3.50;;;;;;;;;;4990491;28;20042;-70
2023/03/30 01:40:26;;;;;;;4.47;2.88;;;;;;;;;;5002275;28;20157;-70
2023/03/30 01:43:03;;;;;;;4.72;3.13;;;26.90;99.90;;;;;;5013156;28;20434;-69
2023/03/30 01:45:50;;;;;;;3.38;3.08;;;26.90;99.90;;;;;;5013794;28;20026;-69
2023/03/30 01:48:25;;;;;;;7.75;3.38;;;27.00;99.90;;;;;;5012894;28;20034;-69
2023/03/30 01:50:57;;;;;;;6.30;3.28;;;27.00;99.90;;;;;;5014568;28;20422;-69
2023/03/30 01:53:32;;;;;;;6.93;3.65;;;27.10;99.90;;;;;;5013960;28;20029;-69
2023/03/30 01:56:38;;;;;;;6.68;4.10;;;27.20;99.90;;;;;;5014084;28;20391;-70
2023/03/30 01:59:14;;;;;;;6.10;4.22;;;;;;;;;;5015826;28;20142;-70
2023/03/30 02:01:41;;;;;;;5.35;4.10;;;;;;;;;;5017650;28;20100;-70
2023/03/30 02:04:09;;;;;;;5.55;3.88;;;;;;;;;;5017735;28;20022;-70
2023/03/30 02:06:42;;;;;;;6.28;4.85;;;;;;;;;;5018633;28;20080;-69
2023/03/30 02:09:08;;;;;;;;;;;;;;;;;;5017720;28;20049;-71
2023/03/30 02:11:35;;;;;;;5.18;4.20;;;;;;;;;;5017560;28;19910;-69
2023/03/30 02:14:04;;;;;;;9.45;5.15;;;;;;;;;;5017162;28;20509;-70
2023/03/30 02:16:34;;;;;;;11.02;6.25;;;;;;;;;;5016482;28;20069;-71
2023/03/30 02:19:01;;;;;;;9.98;5.60;;;;;;;;;;5016580;28;20037;-68
2023/03/30 02:21:28;;;;;;;9.40;5.38;;;;;;;;;;5016600;28;20022;-67
2023/03/30 02:23:56;;;;;;;8.48;5.68;;;;;;;;;;5016194;28;20026;-68
2023/03/30 02:26:23;;;;;;;7.50;5.28;;;;;;;;;;5016446;28;20108;-68
2023/03/30 02:28:50;;;;;;;8.23;5.88;;;;;;;;;;5016402;28;20454;-68
2023/03/30 02:31:17;;;;;;;10.35;5.72;;;;;;;;;;5016437;28;20525;-68
2023/03/30 02:33:45;;;;;;;9.27;5.80;;;;;;;;;;5015052;28;20034;-68
2023/03/30 02:36:20;;;;;;;8.23;6.22;;;;;;;;;;5013072;28;20750;-68
2023/03/30 02:39:07;;;;;;;18.60;6.35;;;;;;;;;;5013837;28;20030;-68
2023/03/30 02:41:41;;;;;;;10.40;6.95;;;;;;;;;;5014645;28;20021;-68
2023/03/30 02:44:09;;;;;;;15.80;8.35;;;;;;;;;;5014987;28;20034;-67
2023/03/30 02:46:44;;;;;;;8.02;6.82;;;;;;;;;;5014972;28;20030;-68
2023/03/30 02:49:22;;;;;;;13.02;7.93;;;28.10;99.90;;;;;;5014749;28;20033;-67
2023/03/30 02:51:52;;;;;;;12.23;7.95;;;;;;;;;;5015795;28;20034;-67
2023/03/30 02:54:27;;;;;;;12.82;8.00;;;;;;;;;;5015965;28;20131;-67
2023/03/30 02:56:54;;;;;;;19.08;8.95;;;;;;;;;;5016000;28;20418;-70
2023/03/30 02:59:27;;;;;;;16.88;8.50;;;28.10;99.90;;;;;;5015915;28;20014;-69
2023/03/30 03:01:53;;;;;;;13.00;9.75;;;;;;;;;;5015457;28;20018;-70
2023/03/30 03:04:22;;;;;;;11.77;9.40;;;;;;;;;;5015699;28;20045;-68
2023/03/30 03:06:51;;;;;;;15.15;11.63;;;;;;;;;;5015583;28;20052;-71
2023/03/30 03:09:19;;;;;;;19.20;13.05;;;28.10;99.90;;;;;;5015391;28;20477;-71
2023/03/30 03:11:46;;;;;;;15.77;11.93;;;;;;;;;;5015663;28;20030;-70
2023/03/30 03:14:13;;;;;;;16.15;10.57;;;;;;;;;;5015492;28;20116;-69
2023/03/30 03:16:39;;;;;;;13.32;9.02;;;28.00;99.90;;;;;;5015474;28;20029;-70
2023/03/30 03:19:07;;;;;;;11.23;8.90;;;;;;;;;;5015437;28;20097;-70
2023/03/30 03:21:33;;;;;;;9.05;6.88;;;;;;;;;;5008997;28;20021;-68
2023/03/30 03:24:00;;;;;;;9.88;7.32;;;;;;;;;;5002828;28;20456;-68
2023/03/30 03:26:27;;;;;;;13.77;6.63;;;28.00;99.90;;;;;;5004612;28;20475;-69
2023/03/30 03:28:53;;;;;;;7.28;5.80;;;;;;;;;;5004776;28;20045;-70
2023/03/30 03:31:20;;;;;;;10.55;5.80;;;;;;;;;;5002899;28;20052;-69
2023/03/30 03:33:48;;;;;;;8.95;6.20;;;28.30;99.90;;;;;;5004067;28;20076;-70
2023/03/30 03:36:14;;;;;;;8.85;6.28;;;;;;;;;;5004655;28;20026;-71
2023/03/30 03:38:41;;;;;;;9.82;7.00;;;;;;;;;;5002731;28;20042;-69
2023/03/30 03:41:08;;;;;;;10.82;6.88;;;;;;;;;;5003971;28;20026;-69
2023/03/30 03:43:35;;;;;;;12.43;7.50;;;;;;;;;;5004564;28;20486;-68
2023/03/30 03:46:02;;;;;;;12.50;7.60;;;;;;;;;;5002765;28;20472;-70
2023/03/30 03:48:28;;;;;;;9.50;6.40;;;;;;;;;;4999069;28;20034;-71
2023/03/30 03:50:56;;;;;;;10.77;6.05;;;;;;;;;;4995252;28;20026;-71
2023/03/30 03:53:24;;;;;;;7.78;5.68;;;;;;;;;;4995063;28;20022;-70
2023/03/30 03:55:50;;;;;;;10.73;6.65;;;28.80;99.90;;;;;;4995123;28;20365;-71
2023/03/30 03:58:17;;;;;;;11.05;6.50;;;28.70;99.90;;;;;;4995203;28;20117;-71
2023/03/30 04:00:45;;;;;;;12.15;7.10;;;;;;;;;;4994886;28;20022;-70
2023/03/30 04:03:11;;;;;;;9.80;6.47;;;28.70;99.90;;;;;;5003059;28;20058;-69
2023/03/30 04:05:39;;;;;;;9.70;6.47;;;28.70;99.90;;;;;;5003764;28;20072;-69
2023/03/30 04:08:10;;;;;;;8.90;5.80;;;28.70;99.90;;;;;;5004882;28;20096;-70
2023/03/30 04:10:38;;;;;;;10.07;5.70;;;28.70;99.90;;;;;;5004736;28;20033;-71
2023/03/30 04:13:05;;;;;;;7.40;5.90;;;;;;;;;;5003152;28;20483;-71
2023/03/30 04:15:32;;;;;;;10.32;5.63;;;;;;;;;;5009248;28;20029;-70
2023/03/30 04:17:58;;;;;;;7.15;6.00;;;29.00;99.90;;;;;;5003571;28;20471;-70
2023/03/30 04:20:27;;;;;;;9.90;6.82;;;29.00;99.90;;;;;;5004206;28;20041;-70
2023/03/30 04:22:54;;;;;;;13.65;6.45;;;;;;;;;;5000890;28;20072;-70
2023/03/30 04:25:24;;;;;;;6.35;5.50;;;29.10;99.90;;;;;;5004241;28;20507;-70
2023/03/30 04:27:52;;;;;;;12.85;8.60;;;29.40;99.90;;;;;;5009718;28;20022;-70
2023/03/30 04:30:21;;;;;;;12.43;9.15;;;28.90;99.90;;;;;;5003213;28;20033;-68
2023/03/30 04:33:01;;;;;;;13.50;8.52;;;29.70;99.90;;;;;;5003001;28;20026;-70
2023/03/30 04:35:30;;;;;;;16.58;11.30;;;29.80;99.90;;;;;;5002812;28;20022;-70
2023/03/30 04:37:58;;;;;;;12.15;9.52;;;29.60;99.90;;;;;;5003331;28;20029;-73
2023/03/30 04:40:25;;;;;;;14.80;9.25;;;29.70;99.90;;;;;;5004269;28;20014;-69
2023/03/30 04:42:52;;;;;;;11.77;9.45;;;29.60;99.90;;;;;;5003240;28;20040;-70
2023/03/30 04:45:19;;;;;;;14.20;10.00;;;29.70;99.90;;;;;;5008787;28;20030;-70
2023/03/30 04:47:46;;;;;;;10.63;8.40;;;29.60;99.90;;;;;;5004674;28;20467;-69
2023/03/30 04:50:13;;;;;;;9.65;7.85;;;29.80;99.90;;;;;;5003129;28;20026;-69
2023/03/30 04:52:40;;;;;;;10.23;6.88;;;29.50;99.90;;;;;;5002849;28;20026;-69
2023/03/30 04:55:08;;;;;;;8.38;6.30;;;29.90;99.90;;;;;;5004494;28;20030;-70
2023/03/30 04:57:35;;;;;;;8.90;6.53;;;29.30;99.90;;;;;;5003326;28;20386;-71
2023/03/30 05:00:03;;;;;;;10.25;5.93;;;29.50;99.90;;;;;;5006988;28;20430;-70
2023/03/30 05:02:31;;;;;;;8.02;4.78;;;29.80;99.90;;;;;;5003171;28;20054;-70
2023/03/30 05:04:57;;;;;;;7.97;4.43;;;29.40;99.90;;;;;;5002713;28;20018;-70
2023/03/30 05:07:24;;;;;;;6.20;3.83;;;30.00;99.90;;;;;;5004071;28;20116;-72
2023/03/30 05:09:51;;;;;;;8.35;5.07;;;30.00;99.90;;;;;;5002694;28;20021;-68
2023/03/30 05:12:17;;;;;;;8.05;4.53;;;29.40;99.90;;;;;;5002616;28;20054;-68
2023/03/30 05:14:44;;;;;;;10.02;4.03;;;29.70;99.90;;;;;;5004478;28;20025;-70
2023/03/30 05:17:10;;;;;;;8.38;4.38;;;30.10;99.90;;;;;;5005921;28;20387;-69
2023/03/30 05:19:37;;;;;;;7.30;4.40;;;30.00;99.90;;;;;;5002589;28;20033;-72
2023/03/30 05:22:04;;;;;;;11.32;5.28;;;29.90;99.90;;;;;;5003120;28;20053;-69
2023/03/30 05:24:33;;;;;;;4.97;3.85;;;30.10;99.90;;;;;;5003508;28;20097;-69
2023/03/30 05:27:01;;;;;;;15.45;4.60;;;29.70;99.90;;;;;;5003600;28;20027;-70
2023/03/30 05:29:27;;;;;;;1122.28;983.08;;;29.70;99.90;;;;;;4996213;28;20037;-69
2023/03/30 05:31:54;;;;;;;41.10;13.25;;;29.70;99.90;;;;;;4993956;28;20480;-70
2023/03/30 05:34:20;;;;;;;854.65;702.65;;;29.70;99.90;;;;;;4997884;28;20030;-67
2023/03/30 05:36:47;;;;;;;50.38;31.73;;;29.70;99.90;;;;;;5005906;28;20025;-68
2023/03/30 05:39:14;;;;;;;20.35;15.60;;;29.80;99.90;;;;;;5005604;28;20102;-71
2023/03/30 05:41:40;;;;;;;18.77;13.02;;;29.80;99.90;;;;;;5015432;28;20025;-68
2023/03/30 05:44:07;;;;;;;76.82;38.88;;;29.90;99.90;;;;;;5007558;28;20101;-69
2023/03/30 05:46:33;;;;;;;7.88;4.22;;;30.00;99.90;;;;;;5010501;28;20125;-68
2023/03/30 05:49:01;;;;;;;86.35;60.38;;;30.00;99.90;;;;;;5008291;28;20065;-69
2023/03/30 05:51:27;;;;;;;29.52;11.50;;;30.10;99.90;;;;;;5010171;28;20411;-74
2023/03/30 05:53:54;;;;;;;11.48;4.53;;;30.00;99.90;;;;;;5017160;28;20445;-70
2023/03/30 05:56:24;;;;;;;5.20;3.97;;;29.90;99.90;;;;;;5010152;28;20038;-66
2023/03/30 05:58:50;;;;;;;9.85;4.38;;;29.80;99.90;;;;;;5004926;28;20025;-68
2023/03/30 06:01:19;;;;;;;6.70;4.20;;;29.80;99.90;;;;;;5011015;28;20036;-65
2023/03/30 06:03:46;;;;;;;8.80;6.28;;;29.80;99.90;;;;;;5010007;28;20061;-65
2023/03/30 06:06:13;;;;;;;5.13;4.63;;;29.90;99.90;;;;;;5011243;28;20448;-67
2023/03/30 06:08:40;;;;;;;11.40;7.35;;;29.90;99.90;;;;;;5008487;28;20057;-66
2023/03/30 06:11:07;;;;;;;43.05;17.13;;;30.00;99.90;;;;;;5010072;28;20168;-71
2023/03/30 06:13:34;;;;;;;12.75;9.77;;;29.90;99.90;;;;;;5007503;28;20080;-66
2023/03/30 06:16:00;;;;;;;6.65;4.68;;;30.00;99.90;;;;;;5012976;28;20026;-68
2023/03/30 06:18:27;;;;;;;6.97;4.53;;;30.10;99.90;;;;;;5001515;28;20030;-68
2023/03/30 06:20:53;;;;;;;6.50;5.38;;;30.20;99.90;;;;;;5012662;28;20056;-67
2023/03/30 06:23:21;;;;;;;5.95;5.35;;;30.20;99.90;;;;;;5012610;28;20038;-69
2023/03/30 06:25:51;;;;;;;10.85;6.60;;;30.30;99.90;;;;;;5012762;28;20112;-67
2023/03/30 06:28:20;;;;;;;7.22;6.47;;;30.30;99.90;;;;;;5007441;28;20033;-69
2023/03/30 06:30:48;;;;;;;8.30;5.00;;;30.40;99.90;;;;;;4999369;28;20018;-65
2023/03/30 06:33:17;;;;;;;12.55;4.45;;;30.50;99.90;;;;;;4999241;28;20419;-64
2023/03/30 06:35:46;;;;;;;5.97;4.32;;;30.50;99.90;;;;;;4999741;28;20034;-69
2023/03/30 06:38:13;;;;;;;5.65;4.00;;;30.50;99.90;;;;;;4999077;28;20094;-68
2023/03/30 06:40:40;;;;;;;7.20;6.50;;;30.50;99.90;;;;;;4998915;28;20043;-67
2023/03/30 06:43:08;;;;;;;7.40;4.65;;;30.60;99.90;;;;;;4999185;28;20493;-68
2023/03/30 06:45:34;;;;;;;5.10;4.38;;;30.70;99.90;;;;;;4998150;28;20030;-69
2023/03/30 06:48:01;;;;;;;12.40;4.00;;;30.70;99.90;;;;;;4999034;28;20044;-66
2023/03/30 06:50:28;;;;;;;5.10;4.57;;;30.70;99.90;;;;;;4999034;28;20049;-67
2023/03/30 06:52:54;;;;;;;5.85;5.20;;;30.70;99.90;;;;;;4999022;28;20018;-68
2023/03/30 06:55:21;;;;;;;5.55;4.57;;;30.70;99.90;;;;;;4998939;28;20034;-65
2023/03/30 06:57:47;;;;;;;9.68;4.95;;;30.80;99.90;;;;;;4998883;28;20019;-67
2023/03/30 07:00:14;;;;;;;6.95;4.07;;;30.90;99.90;;;;;;4999099;28;20025;-66
2023/03/30 07:02:42;;;;;;;15.50;8.43;;;30.90;99.90;;;;;;5002643;28;20056;-66
2023/03/30 07:05:09;;;;;;;14.98;8.00;;;31.00;99.90;;;;;;5000151;28;20042;-67
2023/03/30 07:07:36;;;;;;;8.00;4.63;;;31.00;99.90;;;;;;4998584;28;20547;-69
2023/03/30 07:10:08;;;;;;;6.88;3.95;;;31.00;99.90;;;;;;4999111;28;20021;-67
2023/03/30 07:12:38;;;;;;;12.93;4.22;;;31.00;99.90;;;;;;4998665;28;20101;-67
2023/03/30 07:15:07;;;;;;;6.93;4.22;;;31.00;99.90;;;;;;4998921;28;20022;-65
2023/03/30 07:17:34;;;;;;;8.27;4.78;;;31.00;99.90;;;;;;4998381;28;20118;-67
2023/03/30 07:20:02;;;;;;;7.93;4.00;;;31.00;99.90;;;;;;4998590;28;20501;-68
2023/03/30 07:22:29;;;;;;;7.47;4.60;;;31.00;99.90;;;;;;4998459;28;20030;-69
2023/03/30 07:24:56;;;;;;;5.90;4.43;;;30.90;99.90;;;;;;5000971;28;20434;-68
2023/03/30 07:27:23;;;;;;;12.00;6.25;;;31.00;99.90;;;;;;5005896;28;20022;-69
2023/03/30 07:29:51;;;;;;;7.70;5.60;;;30.90;99.90;;;;;;5002808;28;20030;-66
2023/03/30 07:32:18;;;;;;;9.68;5.82;;;30.90;99.90;;;;;;4998370;28;20037;-69
2023/03/30 07:34:45;;;;;;;9.75;6.20;;;30.90;99.90;;;;;;4999647;28;20045;-68
2023/03/30 07:37:13;;;;;;;10.10;6.32;;;31.00;99.90;;;;;;4998209;28;20081;-69
2023/03/30 07:39:40;;;;;;;10.80;6.72;;;31.00;99.90;;;;;;5002012;28;20391;-67
2023/03/30 07:42:07;;;;;;;9.30;6.50;;;31.00;99.90;;;;;;5005504;28;20118;-68
2023/03/30 07:44:34;;;;;;;11.32;5.68;;;31.00;99.90;;;;;;5002833;28;20056;-67
2023/03/30 07:47:03;;;;;;;6.75;4.82;;;31.00;99.90;;;;;;5004578;28;20026;-67
2023/03/30 07:49:29;;;;;;;6.25;4.95;;;31.10;99.90;;;;;;4997910;28;20137;-68
2023/03/30 07:51:56;;;;;;;6.75;4.93;;;31.00;99.90;;;;;;4995503;28;20025;-67
2023/03/30 07:54:22;;;;;;;9.13;5.45;;;31.00;99.90;;;;;;4997033;28;20057;-65
2023/03/30 07:56:51;;;;;;;13.98;7.95;;;31.00;99.90;;;;;;4992892;28;20030;-66
2023/03/30 07:59:20;;;;;;;10.75;7.47;;;31.00;99.90;;;;;;5007943;28;20014;-69
2023/03/30 08:01:49;;;;;;;7.18;4.90;;;31.00;99.90;;;;;;4997180;28;20026;-66
2023/03/30 08:04:16;;;;;;;7.50;5.65;;;31.00;99.90;;;;;;4995123;28;20022;-66
2023/03/30 08:06:43;;;;;;;7.82;6.10;;;31.00;99.90;;;;;;4994877;28;20039;-65
2023/03/30 08:09:10;;;;;;;11.88;5.63;;;31.00;99.90;;;;;;4994632;28;20052;-67
2023/03/30 08:11:37;;;;;;;9.25;5.40;;;31.10;99.90;;;;;;4994750;28;20038;-67
2023/03/30 08:14:04;;;;;;;5.63;4.50;;;31.20;99.90;;;;;;4994693;28;20034;-67
2023/03/30 08:16:31;;;;;;;7.97;4.97;;;31.20;99.90;;;;;;4994460;28;20081;-66
2023/03/30 08:18:58;;;;;;;7.45;5.55;;;31.20;99.90;;;;;;4999005;28;20026;-67
2023/03/30 08:21:25;;;;;;;10.02;5.13;;;31.20;99.90;;;;;;5001236;28;20027;-67
2023/03/30 08:23:55;;;;;;;9.32;6.45;;;31.20;99.90;;;;;;4994475;28;20054;-68
2023/03/30 08:26:21;;;;;;;9.50;5.95;;;31.20;99.90;;;;;;4994651;28;20053;-65
2023/03/30 08:28:48;;;;;;;12.82;5.15;;;31.20;99.90;;;;;;4994593;28;20030;-64
2023/03/30 08:31:17;;;;;;;9.18;4.85;;;31.20;99.90;;;;;;4994458;28;20037;-65
2023/03/30 08:33:44;;;;;;;6.18;5.35;;;31.30;99.90;;;;;;4994617;28;20030;-66
2023/03/30 08:36:13;;;;;;;6.47;5.57;;;31.30;99.90;;;;;;4994681;28;20030;-64
2023/03/30 08:38:40;;;;;;;8.68;5.57;;;31.20;99.90;;;;;;4994238;28;20030;-64
2023/03/30 08:41:35;;;;;;;5.95;4.70;;;31.20;99.90;;;;;;4994410;28;20030;-66
2023/03/30 08:44:05;;;;;;;7.13;5.22;;;31.20;99.90;;;;;;4990663;28;20038;-68
2023/03/30 08:46:33;;;;;;;10.52;8.00;;;31.20;99.90;;;;;;4994242;28;20030;-66
2023/03/30 08:49:16;;;;;;;10.25;6.93;;;31.20;99.90;;;;;;4994278;28;20042;-67
2023/03/30 08:51:45;;;;;;;10.82;4.47;;;31.20;99.90;;;;;;4994021;28;20027;-70
2023/03/30 08:54:15;;;;;;;7.65;4.05;;;31.00;99.90;;;;;;5008425;28;20514;-69
2023/03/30 08:56:45;;;;;;;7.00;4.28;;;30.80;99.90;;;;;;5006815;28;20026;-68
2023/03/30 08:59:30;;;;;;;7.18;4.80;;;30.70;99.90;;;;;;5011606;28;20097;-67
2023/03/30 09:02:06;;;;;;;7.05;4.88;;;30.60;99.90;;;;;;5002229;28;20029;-66
2023/03/30 09:04:56;;;;;;;6.63;4.93;;;30.50;99.90;;;;;;5003112;28;20018;-67
2023/03/30 09:07:30;;;;;;;5.45;4.47;;;30.30;99.90;;;;;;5002237;28;20042;-70
2023/03/30 09:09:58;;;;;;;5.78;4.85;;;30.30;99.90;;;;;;5004381;28;20491;-72
2023/03/30 09:12:38;;;;;;;9.90;6.30;;;30.10;99.90;;;;;;5005038;28;20034;-72
2023/03/30 09:15:28;;;;;;;10.90;6.50;;;30.10;99.90;;;;;;5001355;28;20436;-71
2023/03/30 09:18:10;;;;;;;12.27;7.43;;;30.20;99.90;;;;;;5004060;28;20050;-71
2023/03/30 09:20:39;;;;;;;11.50;7.68;;;30.20;99.90;;;;;;5004033;28;20069;-71
2023/03/30 09:23:12;;;;;;;10.52;7.10;;;30.20;99.90;;;;;;5002557;28;20032;-69
2023/03/30 09:25:53;;;;;;;14.52;8.18;;;30.20;99.90;;;;;;5002220;28;20069;-70
2023/03/30 09:28:23;;;;;;;15.15;8.15;;;30.10;99.90;;;;;;5002117;28;20101;-71
2023/03/30 09:30:59;;;;;;;12.30;7.95;;;30.10;99.90;;;;;;5003242;28;20068;-68
2023/03/30 09:33:30;;;;;;;23.33;15.48;;;30.10;99.90;;;;;;5003758;28;20021;-69
2023/03/30 09:36:04;;;;;;;23.33;14.35;;;30.20;99.90;;;;;;5003883;28;20046;-69
2023/03/30 09:38:31;;;;;;;12.43;9.02;;;30.20;99.90;;;;;;5003321;28;20073;-69
2023/03/30 09:41:20;;;;;;;10.70;7.32;;;30.20;99.90;;;;;;5002154;28;20109;-70
2023/03/30 09:43:50;;;;;;;10.73;6.65;;;30.00;99.90;;;;;;5002091;28;20395;-73
2023/03/30 09:46:17;;;;;;;9.23;7.28;;;30.00;99.90;;;;;;5002263;28;20386;-67
2023/03/30 09:48:46;;;;;;;11.20;7.07;;;30.00;99.90;;;;;;5004305;28;20021;-67
2023/03/30 09:51:17;;;;;;;10.52;7.65;;;29.90;99.90;;;;;;5006614;28;20113;-70
2023/03/30 09:53:46;;;;;;;14.50;11.65;;;29.90;99.90;;;;;;5005001;28;20106;-70
2023/03/30 09:56:21;;;;;;;12.77;9.57;;;30.00;99.90;;;;;;5000541;28;20037;-69
2023/03/30 09:58:48;;;;;;;11.48;9.32;;;30.00;99.90;;;;;;4997814;28;20103;-68
2023/03/30 10:01:18;;;;;;;14.15;9.40;;;29.90;99.90;;;;;;5003362;28;20053;-69
2023/03/30 10:04:04;;;;;;;14.32;9.18;;;29.90;99.90;;;;;;5003940;28;20033;-68
2023/03/30 10:06:50;;;;;;;13.07;9.07;;;29.90;99.90;;;;;;5009874;28;20050;-67
2023/03/30 10:09:22;;;;;;;9.90;8.65;;;29.90;99.90;;;;;;5001812;28;20403;-68
2023/03/30 10:11:51;;;;;;;13.77;9.13;;;29.90;99.90;;;;;;5007270;28;20045;-67
2023/03/30 10:14:31;;;;;;;17.00;9.15;;;29.90;99.90;;;;;;5013080;28;20026;-66
2023/03/30 10:16:59;;;;;;;16.95;9.57;;;29.70;99.90;;;;;;5012943;28;20058;-65
2023/03/30 10:19:26;;;;;;;19.55;11.88;;;29.80;99.90;;;;;;5014336;28;20030;-66
2023/03/30 10:21:57;;;;;;;19.08;11.75;;;29.80;99.90;;;;;;5017186;28;20014;-66
2023/03/30 10:24:27;;;;;;;54.42;21.23;;;29.80;99.90;;;;;;5010098;28;20103;-66
2023/03/30 10:27:14;;;;;;;22.52;13.30;;;29.90;99.90;;;;;;5004249;28;20045;-66
2023/03/30 10:29:51;;;;;;;21.80;12.85;;;29.90;99.90;;;;;;5011862;28;20014;-66
2023/03/30 10:32:22;;;;;;;21.40;12.82;;;29.90;99.90;;;;;;5006726;28;20391;-66
2023/03/30 10:34:54;;;;;;;29.33;17.42;;;29.80;99.90;;;;;;5011038;28;20486;-67
2023/03/30 10:37:43;;;;;;;31.60;17.60;;;29.80;99.90;;;;;;5004229;28;20038;-66
2023/03/30 10:40:19;;;;;;;34.47;18.38;;;29.80;99.90;;;;;;5006220;28;20034;-67
2023/03/30 10:42:54;;;;;;;34.60;19.98;;;29.70;99.90;;;;;;5008376;28;20394;-66
2023/03/30 10:45:46;;;;;;;39.13;28.23;;;29.70;99.90;;;;;;5016149;28;20026;-67
2023/03/30 10:48:30;;;;;;;50.92;34.08;;;29.70;99.90;;;;;;5015398;28;20034;-67
2023/03/30 10:51:07;;;;;;;48.72;30.77;;;29.70;99.90;;;;;;4996634;28;20133;-67
2023/03/30 10:53:44;;;;;;;42.35;24.70;;;29.60;99.90;;;;;;5010393;28;20049;-68
2023/03/30 10:56:20;;;;;;;56.88;29.35;;;29.60;99.90;;;;;;5015852;28;20383;-67
2023/03/30 10:58:51;;;;;;;51.50;22.80;;;29.60;99.90;;;;;;5012942;28;20022;-67
2023/03/30 11:01:58;;;;;;;56.60;31.02;;;29.50;99.90;;;;;;5001571;28;20026;-66
2023/03/30 11:04:35;;;;;;;56.83;29.98;;;29.50;99.90;;;;;;4993200;28;20030;-65
2023/03/30 11:07:05;;;;;;;45.63;27.92;;;29.50;99.90;;;;;;4996080;28;20476;-66
2023/03/30 11:09:37;;;;;;;62.95;36.78;;;29.50;99.90;;;;;;4996438;28;20057;-65
2023/03/30 11:12:13;;;;;;;;;;;29.40;99.90;;;;;;5011169;28;20084;-66
2023/03/30 11:15:02;;;;;;;62.40;38.70;;;29.40;99.90;;;;;;5015638;28;19909;-66
2023/03/30 11:17:40;;;;;;;75.13;46.65;;;29.40;99.90;;;;;;5015563;28;20037;-66
2023/03/30 11:20:20;;;;;;;214.40;154.82;;;29.40;99.90;;;;;;5015646;28;20033;-68
2023/03/30 11:22:56;;;;;;;118.55;69.72;;;29.30;99.90;;;;;;5015126;28;20395;-67
2023/03/30 11:25:27;;;;;;;83.40;55.35;;;29.40;99.90;;;;;;5015426;28;20421;-68
2023/03/30 11:27:56;;;;;;;63.22;40.05;;;29.30;99.90;;;;;;5015440;28;20029;-68
2023/03/30 11:30:29;;;;;;;78.95;52.63;;;29.30;99.90;;;;;;5014974;28;20423;-69
2023/03/30 11:33:16;;;;;;;145.75;98.95;;;29.30;99.90;;;;;;5015345;28;20029;-67
2023/03/30 11:35:43;;;;;;;66.50;39.85;;;29.30;99.90;;;;;;5006119;28;20479;-66
2023/03/30 11:38:15;;;;;;;56.92;32.85;;;29.20;99.90;;;;;;5004306;28;20121;-66
2023/03/30 11:41:03;;;;;;;44.25;30.75;;;29.20;99.90;;;;;;5003532;28;20526;-68
2023/03/30 11:43:30;;;;;;;61.85;40.38;;;29.10;99.90;;;;;;5004617;28;20033;-68
2023/03/30 11:46:17;;;;;;;37.72;23.48;;;29.10;99.90;;;;;;5004995;28;20022;-68
2023/03/30 11:49:04;;;;;;;50.95;32.47;;;29.10;99.90;;;;;;5005461;28;20026;-66
2023/03/30 11:51:32;;;;;;;38.17;24.23;;;29.10;99.90;;;;;;5008590;28;20153;-69
2023/03/30 11:54:20;;;;;;;32.78;22.05;;;29.10;99.90;;;;;;5009920;28;20030;-69
2023/03/30 11:57:11;;;;;;;42.45;24.70;;;29.10;99.90;;;;;;5003395;28;20070;-69
2023/03/30 11:59:47;;;;;;;48.63;29.35;;;29.00;99.90;;;;;;5007813;28;20026;-68
2023/03/30 12:02:15;;;;;;;57.90;37.22;;;29.00;99.90;;;;;;5004229;28;20018;-69
2023/03/30 12:04:51;;;;;;;77.30;53.58;;;29.00;99.90;;;;;;5003363;28;20379;-70
2023/03/30 12:07:26;;;;;;;44.90;31.27;;;29.00;99.90;;;;;;5003184;28;20046;-67
2023/03/30 12:09:58;;;;;;;46.22;27.73;;;28.90;99.90;;;;;;5004329;28;20032;-68
2023/03/30 12:12:35;;;;;;;33.90;21.83;;;29.00;99.90;;;;;;4997502;28;20026;-68
2023/03/30 12:15:06;;;;;;;33.40;21.85;;;29.00;99.90;;;;;;5008514;28;20041;-70
2023/03/30 12:17:44;;;;;;;33.80;21.13;;;29.00;99.90;;;;;;4994849;28;20511;-69
2023/03/30 12:20:15;;;;;;;47.95;36.00;;;29.00;99.90;;;;;;4995174;28;20476;-69
2023/03/30 12:22:55;;;;;;;74.60;57.10;;;28.90;99.90;;;;;;4999327;28;20053;-72
2023/03/30 12:25:31;;;;;;;74.72;49.30;;;28.90;99.90;;;;;;5000850;28;20027;-69
2023/03/30 12:28:10;;;;;;;49.45;32.08;;;28.90;99.90;;;;;;4994845;28;20026;-70
2023/03/30 12:30:59;;;;;;;63.97;36.50;;;28.90;99.90;;;;;;4994928;28;20018;-67
2023/03/30 12:33:27;;;;;;;47.05;29.65;;;28.90;99.90;;;;;;4994712;28;20026;-70
2023/03/30 12:35:56;;;;;;;37.90;26.50;;;28.90;99.90;;;;;;4994565;28;20109;-68
2023/03/30 12:38:40;;;;;;;48.10;27.85;;;28.80;99.90;;;;;;4994813;28;20113;-74
2023/03/30 12:43:50;;;;;;;56.65;31.58;;;28.80;99.90;;;;;;5007656;28;20030;-69
2023/03/30 12:46:30;;;;;;;55.58;33.70;;;28.80;99.90;;;;;;5005039;28;20056;-69
2023/03/30 12:49:23;;;;;;;52.47;32.20;;;28.80;99.90;;;;;;5003880;28;20069;-69
2023/03/30 12:51:56;;;;;;;63.40;35.13;;;28.80;99.90;;;;;;4996835;28;20049;-69
2023/03/30 12:54:36;;;;;;;55.08;32.85;;;28.80;99.90;;;;;;4994039;28;20457;-70
2023/03/30 12:57:28;;;;;;;58.25;33.58;;;28.80;99.90;;;;;;4994248;28;20061;-71
2023/03/30 12:59:55;;;;;;;48.45;32.10;;;28.80;99.90;;;;;;5010306;28;20096;-68
2023/03/30 13:02:35;;;;;;;65.85;34.30;;;28.80;99.90;;;;;;5013668;28;20018;-69
2023/03/30 13:05:03;;;;;;;67.35;37.72;;;28.80;99.90;;;;;;5013674;28;20050;-68
2023/03/30 13:07:35;;;;;;;57.28;33.65;;;28.80;99.90;;;;;;5013571;28;20115;-67
2023/03/30 13:10:30;;;;;;;21.83;13.38;;;28.80;99.90;;;;;;5014120;28;20027;-69
2023/03/30 13:12:59;;;;;;;16.48;11.13;;;28.50;99.90;;;;;;4999922;28;20085;-69
2023/03/30 13:15:29;;;;;;;12.00;7.93;;;28.00;99.90;;;;;;4994146;28;20539;-69
2023/03/30 13:17:59;;;;;;;10.10;6.70;;;27.50;99.90;;;;;;4994176;28;20037;-69
2023/03/30 13:20:29;;;;;;;12.70;6.45;;;27.30;99.90;;;;;;4994169;28;20022;-69
2023/03/30 13:23:15;;;;;;;14.25;6.15;;;27.10;99.90;;;;;;4994311;28;20471;-67
2023/03/30 13:26:06;;;;;;;10.20;6.00;;;26.90;99.90;;;;;;5012595;28;20027;-67
2023/03/30 13:28:36;;;;;;;10.30;7.13;;;26.70;99.90;;;;;;5014193;28;20410;-67